sensor_id;sensor_type;location;lat;lon;timestamp;P1;durP1;ratioP1;P2;durP2;ratioP2
29412;SDS011;16389;50.126;8.450;2023-05-09T00:01:39;11.13;;;10.02;;
29412;SDS011;16389;50.126;8.450;2023-05-09T00:04:05;10.35;;;9.30;;
29412;SDS011;16389;50.126;8.450;2023-05-09T00:06:31;12.82;;;10.55;;
29412;SDS011;16389;50.126;8.450;2023-05-09T00:08:57;11.70;;;10.50;;
29412;SDS011;16389;50.126;8.450;2023-05-09T00:11:23;10.50;;;9.50;;
29412;SDS011;16389;50.126;8.450;2023-05-09T00:13:49;10.02;;;9.13;;
29412;SDS011;16389;50.126;8.450;2023-05-09T00:16:15;11.18;;;9.23;;
29412;SDS011;16389;50.126;8.450;2023-05-09T00:18:41;11.95;;;10.10;;
29412;SDS011;16389;50.126;8.450;2023-05-09T00:21:08;10.80;;;9.80;;
29412;SDS011;16389;50.126;8.450;2023-05-09T00:23:35;10.52;;;9.63;;
29412;SDS011;16389;50.126;8.450;2023-05-09T00:26:01;11.85;;;9.80;;
29412;SDS011;16389;50.126;8.450;2023-05-09T00:28:27;10.88;;;9.77;;
29412;SDS011;16389;50.126;8.450;2023-05-09T00:30:52;10.63;;;9.45;;
29412;SDS011;16389;50.126;8.450;2023-05-09T00:33:18;11.57;;;10.13;;
29412;SDS011;16389;50.126;8.450;2023-05-09T00:35:44;11.20;;;10.02;;
29412;SDS011;16389;50.126;8.450;2023-05-09T00:38:10;11.45;;;10.23;;
29412;SDS011;16389;50.126;8.450;2023-05-09T00:40:36;11.48;;;9.70;;
29412;SDS011;16389;50.126;8.450;2023-05-09T00:43:02;10.60;;;9.57;;
29412;SDS011;16389;50.126;8.450;2023-05-09T00:45:29;12.80;;;9.55;;
29412;SDS011;16389;50.126;8.450;2023-05-09T00:47:55;11.77;;;10.68;;
29412;SDS011;16389;50.126;8.450;2023-05-09T00:50:21;10.95;;;9.98;;
29412;SDS011;16389;50.126;8.450;2023-05-09T00:52:50;10.30;;;9.30;;
29412;SDS011;16389;50.126;8.450;2023-05-09T00:55:16;11.48;;;10.25;;
29412;SDS011;16389;50.126;8.450;2023-05-09T00:57:42;11.55;;;10.43;;
29412;SDS011;16389;50.126;8.450;2023-05-09T01:00:08;10.82;;;9.77;;
29412;SDS011;16389;50.126;8.450;2023-05-09T01:02:41;11.00;;;9.90;;
29412;SDS011;16389;50.126;8.450;2023-05-09T01:05:08;16.23;;;12.43;;
29412;SDS011;16389;50.126;8.450;2023-05-09T01:07:42;11.25;;;10.10;;
29412;SDS011;16389;50.126;8.450;2023-05-09T01:10:30;10.45;;;9.43;;
29412;SDS011;16389;50.126;8.450;2023-05-09T01:13:07;10.80;;;9.63;;
29412;SDS011;16389;50.126;8.450;2023-05-09T01:15:40;11.30;;;10.18;;
29412;SDS011;16389;50.126;8.450;2023-05-09T01:29:33;12.18;;;10.98;;
29412;SDS011;16389;50.126;8.450;2023-05-09T01:32:09;14.35;;;10.57;;
29412;SDS011;16389;50.126;8.450;2023-05-09T01:35:00;10.30;;;9.40;;
29412;SDS011;16389;50.126;8.450;2023-05-09T01:37:29;11.52;;;10.23;;
29412;SDS011;16389;50.126;8.450;2023-05-09T01:40:32;10.30;;;9.35;;
29412;SDS011;16389;50.126;8.450;2023-05-09T01:45:24;10.82;;;9.93;;
29412;SDS011;16389;50.126;8.450;2023-05-09T01:47:51;11.27;;;10.18;;
29412;SDS011;16389;50.126;8.450;2023-05-09T01:50:17;17.10;;;10.80;;
29412;SDS011;16389;50.126;8.450;2023-05-09T01:52:46;14.65;;;11.38;;
29412;SDS011;16389;50.126;8.450;2023-05-09T01:55:13;13.18;;;10.82;;
29412;SDS011;16389;50.126;8.450;2023-05-09T01:57:41;14.45;;;12.32;;
29412;SDS011;16389;50.126;8.450;2023-05-09T02:00:08;12.60;;;11.40;;
29412;SDS011;16389;50.126;8.450;2023-05-09T02:02:36;12.45;;;11.20;;
29412;SDS011;16389;50.126;8.450;2023-05-09T02:05:03;12.30;;;11.00;;
29412;SDS011;16389;50.126;8.450;2023-05-09T02:07:30;12.02;;;10.88;;
29412;SDS011;16389;50.126;8.450;2023-05-09T02:09:56;13.15;;;11.93;;
29412;SDS011;16389;50.126;8.450;2023-05-09T02:12:24;13.35;;;12.10;;
29412;SDS011;16389;50.126;8.450;2023-05-09T02:14:50;14.82;;;12.20;;
29412;SDS011;16389;50.126;8.450;2023-05-09T02:17:16;13.57;;;12.13;;
29412;SDS011;16389;50.126;8.450;2023-05-09T02:19:43;14.85;;;13.13;;
29412;SDS011;16389;50.126;8.450;2023-05-09T02:22:09;15.88;;;11.55;;
29412;SDS011;16389;50.126;8.450;2023-05-09T02:24:36;13.80;;;12.50;;
29412;SDS011;16389;50.126;8.450;2023-05-09T02:27:02;12.95;;;11.65;;
29412;SDS011;16389;50.126;8.450;2023-05-09T02:29:30;15.90;;;11.88;;
29412;SDS011;16389;50.126;8.450;2023-05-09T02:32:08;13.70;;;12.30;;
29412;SDS011;16389;50.126;8.450;2023-05-09T02:34:39;13.27;;;11.98;;
29412;SDS011;16389;50.126;8.450;2023-05-09T02:37:06;12.98;;;11.20;;
29412;SDS011;16389;50.126;8.450;2023-05-09T02:39:32;13.25;;;11.52;;
29412;SDS011;16389;50.126;8.450;2023-05-09T02:42:06;13.57;;;12.18;;
29412;SDS011;16389;50.126;8.450;2023-05-09T02:44:33;17.88;;;10.98;;
29412;SDS011;16389;50.126;8.450;2023-05-09T02:47:00;11.25;;;10.20;;
29412;SDS011;16389;50.126;8.450;2023-05-09T02:49:27;12.95;;;10.80;;
29412;SDS011;16389;50.126;8.450;2023-05-09T02:51:52;14.65;;;13.35;;
29412;SDS011;16389;50.126;8.450;2023-05-09T02:54:18;12.95;;;11.73;;
29412;SDS011;16389;50.126;8.450;2023-05-09T02:56:43;12.77;;;11.60;;
29412;SDS011;16389;50.126;8.450;2023-05-09T02:59:09;14.73;;;13.32;;
29412;SDS011;16389;50.126;8.450;2023-05-09T03:01:35;14.65;;;13.15;;
29412;SDS011;16389;50.126;8.450;2023-05-09T03:04:02;14.45;;;12.60;;
29412;SDS011;16389;50.126;8.450;2023-05-09T03:06:28;15.68;;;11.98;;
29412;SDS011;16389;50.126;8.450;2023-05-09T03:08:53;13.43;;;12.15;;
29412;SDS011;16389;50.126;8.450;2023-05-09T03:11:19;13.77;;;12.02;;
29412;SDS011;16389;50.126;8.450;2023-05-09T03:13:44;13.52;;;12.13;;
29412;SDS011;16389;50.126;8.450;2023-05-09T03:16:11;15.20;;;12.80;;
29412;SDS011;16389;50.126;8.450;2023-05-09T03:18:38;14.15;;;12.85;;
29412;SDS011;16389;50.126;8.450;2023-05-09T03:21:04;15.27;;;12.00;;
29412;SDS011;16389;50.126;8.450;2023-05-09T03:23:30;12.65;;;11.40;;
29412;SDS011;16389;50.126;8.450;2023-05-09T03:25:56;14.48;;;13.05;;
29412;SDS011;16389;50.126;8.450;2023-05-09T03:28:21;14.82;;;13.25;;
29412;SDS011;16389;50.126;8.450;2023-05-09T03:30:47;13.40;;;12.18;;
29412;SDS011;16389;50.126;8.450;2023-05-09T03:33:13;14.30;;;12.23;;
29412;SDS011;16389;50.126;8.450;2023-05-09T03:35:39;13.77;;;12.25;;
29412;SDS011;16389;50.126;8.450;2023-05-09T03:38:05;14.98;;;13.32;;
29412;SDS011;16389;50.126;8.450;2023-05-09T03:40:30;19.42;;;11.63;;
29412;SDS011;16389;50.126;8.450;2023-05-09T03:42:56;17.50;;;12.75;;
29412;SDS011;16389;50.126;8.450;2023-05-09T03:45:22;18.13;;;12.98;;
29412;SDS011;16389;50.126;8.450;2023-05-09T03:47:47;14.77;;;13.27;;
29412;SDS011;16389;50.126;8.450;2023-05-09T03:50:13;15.65;;;13.93;;
29412;SDS011;16389;50.126;8.450;2023-05-09T03:52:39;18.77;;;16.20;;
29412;SDS011;16389;50.126;8.450;2023-05-09T03:55:04;19.08;;;15.43;;
29412;SDS011;16389;50.126;8.450;2023-05-09T03:57:31;21.27;;;16.73;;
29412;SDS011;16389;50.126;8.450;2023-05-09T03:59:58;20.88;;;15.63;;
29412;SDS011;16389;50.126;8.450;2023-05-09T04:02:24;20.20;;;15.90;;
29412;SDS011;16389;50.126;8.450;2023-05-09T04:04:50;18.40;;;15.25;;
29412;SDS011;16389;50.126;8.450;2023-05-09T04:07:16;19.77;;;15.95;;
29412;SDS011;16389;50.126;8.450;2023-05-09T04:09:43;17.02;;;14.85;;
29412;SDS011;16389;50.126;8.450;2023-05-09T04:12:09;18.55;;;14.48;;
29412;SDS011;16389;50.126;8.450;2023-05-09T04:14:34;18.88;;;16.33;;
29412;SDS011;16389;50.126;8.450;2023-05-09T04:17:00;18.40;;;14.85;;
29412;SDS011;16389;50.126;8.450;2023-05-09T04:19:26;17.33;;;14.43;;
29412;SDS011;16389;50.126;8.450;2023-05-09T04:21:51;23.77;;;16.08;;
29412;SDS011;16389;50.126;8.450;2023-05-09T04:24:17;18.23;;;15.57;;
29412;SDS011;16389;50.126;8.450;2023-05-09T04:26:43;18.75;;;16.23;;
29412;SDS011;16389;50.126;8.450;2023-05-09T04:29:10;18.55;;;15.63;;
29412;SDS011;16389;50.126;8.450;2023-05-09T04:31:35;16.33;;;14.80;;
29412;SDS011;16389;50.126;8.450;2023-05-09T04:34:01;19.48;;;14.73;;
29412;SDS011;16389;50.126;8.450;2023-05-09T04:36:27;18.05;;;14.80;;
29412;SDS011;16389;50.126;8.450;2023-05-09T04:38:53;21.20;;;15.98;;
29412;SDS011;16389;50.126;8.450;2023-05-09T04:41:18;18.30;;;15.20;;
29412;SDS011;16389;50.126;8.450;2023-05-09T04:43:45;18.42;;;16.45;;
29412;SDS011;16389;50.126;8.450;2023-05-09T04:46:11;20.52;;;15.25;;
29412;SDS011;16389;50.126;8.450;2023-05-09T04:48:36;17.35;;;15.52;;
29412;SDS011;16389;50.126;8.450;2023-05-09T04:51:02;16.20;;;14.50;;
29412;SDS011;16389;50.126;8.450;2023-05-09T04:53:28;16.17;;;14.48;;
29412;SDS011;16389;50.126;8.450;2023-05-09T04:55:53;22.42;;;17.08;;
29412;SDS011;16389;50.126;8.450;2023-05-09T04:58:20;20.92;;;16.30;;
29412;SDS011;16389;50.126;8.450;2023-05-09T05:00:45;16.58;;;13.70;;
29412;SDS011;16389;50.126;8.450;2023-05-09T05:03:11;17.52;;;15.65;;
29412;SDS011;16389;50.126;8.450;2023-05-09T05:05:37;22.77;;;16.13;;
29412;SDS011;16389;50.126;8.450;2023-05-09T05:08:04;18.60;;;16.60;;
29412;SDS011;16389;50.126;8.450;2023-05-09T05:10:30;20.80;;;16.70;;
29412;SDS011;16389;50.126;8.450;2023-05-09T05:12:55;18.75;;;16.80;;
29412;SDS011;16389;50.126;8.450;2023-05-09T05:15:21;18.75;;;16.02;;
29412;SDS011;16389;50.126;8.450;2023-05-09T05:17:47;17.98;;;16.00;;
29412;SDS011;16389;50.126;8.450;2023-05-09T05:20:12;22.60;;;17.25;;
29412;SDS011;16389;50.126;8.450;2023-05-09T05:22:38;19.98;;;15.35;;
29412;SDS011;16389;50.126;8.450;2023-05-09T05:25:04;22.27;;;16.33;;
29412;SDS011;16389;50.126;8.450;2023-05-09T05:27:30;17.70;;;15.82;;
29412;SDS011;16389;50.126;8.450;2023-05-09T05:29:55;20.35;;;17.05;;
29412;SDS011;16389;50.126;8.450;2023-05-09T05:32:21;17.45;;;15.65;;
29412;SDS011;16389;50.126;8.450;2023-05-09T05:34:47;18.30;;;16.40;;
29412;SDS011;16389;50.126;8.450;2023-05-09T05:37:12;16.88;;;15.10;;
29412;SDS011;16389;50.126;8.450;2023-05-09T05:39:38;18.02;;;14.82;;
29412;SDS011;16389;50.126;8.450;2023-05-09T05:42:03;15.52;;;13.93;;
29412;SDS011;16389;50.126;8.450;2023-05-09T05:44:29;15.75;;;14.10;;
29412;SDS011;16389;50.126;8.450;2023-05-09T05:46:55;15.90;;;14.35;;
29412;SDS011;16389;50.126;8.450;2023-05-09T05:49:20;15.73;;;14.13;;
29412;SDS011;16389;50.126;8.450;2023-05-09T05:51:46;19.10;;;14.88;;
29412;SDS011;16389;50.126;8.450;2023-05-09T05:54:11;17.95;;;16.05;;
29412;SDS011;16389;50.126;8.450;2023-05-09T05:56:37;18.92;;;14.68;;
29412;SDS011;16389;50.126;8.450;2023-05-09T05:59:03;19.42;;;15.00;;
29412;SDS011;16389;50.126;8.450;2023-05-09T06:01:28;22.40;;;15.98;;
29412;SDS011;16389;50.126;8.450;2023-05-09T06:03:54;15.10;;;13.63;;
29412;SDS011;16389;50.126;8.450;2023-05-09T06:06:20;15.73;;;14.27;;
29412;SDS011;16389;50.126;8.450;2023-05-09T06:08:47;15.88;;;14.23;;
29412;SDS011;16389;50.126;8.450;2023-05-09T06:11:15;16.25;;;14.65;;
29412;SDS011;16389;50.126;8.450;2023-05-09T06:13:42;14.90;;;13.40;;
29412;SDS011;16389;50.126;8.450;2023-05-09T06:16:08;15.63;;;14.10;;
29412;SDS011;16389;50.126;8.450;2023-05-09T06:18:34;16.50;;;14.27;;
29412;SDS011;16389;50.126;8.450;2023-05-09T06:21:02;17.73;;;15.52;;
29412;SDS011;16389;50.126;8.450;2023-05-09T06:23:28;15.32;;;13.82;;
29412;SDS011;16389;50.126;8.450;2023-05-09T06:25:53;14.82;;;13.48;;
29412;SDS011;16389;50.126;8.450;2023-05-09T06:28:19;15.23;;;13.60;;
29412;SDS011;16389;50.126;8.450;2023-05-09T06:30:45;15.63;;;14.00;;
29412;SDS011;16389;50.126;8.450;2023-05-09T06:33:10;15.35;;;13.77;;
29412;SDS011;16389;50.126;8.450;2023-05-09T06:35:36;15.20;;;13.48;;
29412;SDS011;16389;50.126;8.450;2023-05-09T06:38:02;17.17;;;15.13;;
29412;SDS011;16389;50.126;8.450;2023-05-09T06:40:27;15.73;;;14.02;;
29412;SDS011;16389;50.126;8.450;2023-05-09T06:42:53;17.98;;;13.73;;
29412;SDS011;16389;50.126;8.450;2023-05-09T06:45:19;16.00;;;14.40;;
29412;SDS011;16389;50.126;8.450;2023-05-09T06:47:44;16.38;;;14.77;;
29412;SDS011;16389;50.126;8.450;2023-05-09T06:50:10;15.90;;;14.35;;
29412;SDS011;16389;50.126;8.450;2023-05-09T06:52:36;15.05;;;13.50;;
29412;SDS011;16389;50.126;8.450;2023-05-09T06:55:02;17.65;;;15.20;;
29412;SDS011;16389;50.126;8.450;2023-05-09T06:57:28;16.60;;;15.00;;
29412;SDS011;16389;50.126;8.450;2023-05-09T06:59:54;15.68;;;14.20;;
29412;SDS011;16389;50.126;8.450;2023-05-09T07:02:19;17.98;;;14.25;;
29412;SDS011;16389;50.126;8.450;2023-05-09T07:04:45;17.27;;;14.45;;
29412;SDS011;16389;50.126;8.450;2023-05-09T07:07:10;16.52;;;14.90;;
29412;SDS011;16389;50.126;8.450;2023-05-09T07:09:36;15.98;;;14.48;;
29412;SDS011;16389;50.126;8.450;2023-05-09T07:12:02;14.18;;;12.85;;
29412;SDS011;16389;50.126;8.450;2023-05-09T07:14:28;14.05;;;12.65;;
29412;SDS011;16389;50.126;8.450;2023-05-09T07:16:53;13.63;;;12.30;;
29412;SDS011;16389;50.126;8.450;2023-05-09T07:19:19;14.23;;;12.90;;
29412;SDS011;16389;50.126;8.450;2023-05-09T07:21:45;20.45;;;13.35;;
29412;SDS011;16389;50.126;8.450;2023-05-09T07:24:10;14.23;;;12.48;;
29412;SDS011;16389;50.126;8.450;2023-05-09T07:26:36;15.57;;;14.07;;
29412;SDS011;16389;50.126;8.450;2023-05-09T07:29:02;15.07;;;13.48;;
29412;SDS011;16389;50.126;8.450;2023-05-09T07:31:28;14.13;;;12.55;;
29412;SDS011;16389;50.126;8.450;2023-05-09T07:33:53;14.15;;;12.85;;
29412;SDS011;16389;50.126;8.450;2023-05-09T07:36:19;13.75;;;12.55;;
29412;SDS011;16389;50.126;8.450;2023-05-09T07:38:45;15.35;;;13.43;;
29412;SDS011;16389;50.126;8.450;2023-05-09T07:41:16;14.30;;;12.82;;
29412;SDS011;16389;50.126;8.450;2023-05-09T07:43:42;16.70;;;13.65;;
29412;SDS011;16389;50.126;8.450;2023-05-09T07:46:11;14.15;;;12.80;;
29412;SDS011;16389;50.126;8.450;2023-05-09T07:48:36;13.82;;;12.52;;
29412;SDS011;16389;50.126;8.450;2023-05-09T07:51:02;13.23;;;11.93;;
29412;SDS011;16389;50.126;8.450;2023-05-09T07:53:28;13.30;;;12.05;;
29412;SDS011;16389;50.126;8.450;2023-05-09T07:55:53;22.52;;;13.20;;
29412;SDS011;16389;50.126;8.450;2023-05-09T07:58:19;13.75;;;12.30;;
29412;SDS011;16389;50.126;8.450;2023-05-09T08:00:45;12.07;;;10.98;;
29412;SDS011;16389;50.126;8.450;2023-05-09T08:03:10;14.50;;;11.95;;
29412;SDS011;16389;50.126;8.450;2023-05-09T08:05:36;14.05;;;12.65;;
29412;SDS011;16389;50.126;8.450;2023-05-09T08:08:02;12.85;;;11.50;;
29412;SDS011;16389;50.126;8.450;2023-05-09T08:10:28;14.68;;;12.13;;
29412;SDS011;16389;50.126;8.450;2023-05-09T08:12:57;13.43;;;12.23;;
29412;SDS011;16389;50.126;8.450;2023-05-09T08:15:23;13.77;;;12.55;;
29412;SDS011;16389;50.126;8.450;2023-05-09T08:17:50;14.57;;;13.20;;
29412;SDS011;16389;50.126;8.450;2023-05-09T08:20:15;13.93;;;12.60;;
29412;SDS011;16389;50.126;8.450;2023-05-09T08:22:41;15.02;;;13.68;;
29412;SDS011;16389;50.126;8.450;2023-05-09T08:25:07;15.80;;;14.18;;
29412;SDS011;16389;50.126;8.450;2023-05-09T08:27:33;12.82;;;11.73;;
29412;SDS011;16389;50.126;8.450;2023-05-09T08:29:58;13.63;;;12.35;;
29412;SDS011;16389;50.126;8.450;2023-05-09T08:32:24;12.95;;;11.65;;
29412;SDS011;16389;50.126;8.450;2023-05-09T08:34:50;13.90;;;12.38;;
29412;SDS011;16389;50.126;8.450;2023-05-09T08:37:16;13.52;;;12.13;;
29412;SDS011;16389;50.126;8.450;2023-05-09T08:39:41;13.02;;;11.82;;
29412;SDS011;16389;50.126;8.450;2023-05-09T08:42:07;12.43;;;11.07;;
29412;SDS011;16389;50.126;8.450;2023-05-09T08:44:34;16.98;;;13.40;;
29412;SDS011;16389;50.126;8.450;2023-05-09T08:47:00;15.88;;;12.82;;
29412;SDS011;16389;50.126;8.450;2023-05-09T08:49:27;15.60;;;13.80;;
29412;SDS011;16389;50.126;8.450;2023-05-09T08:51:54;14.27;;;12.40;;
29412;SDS011;16389;50.126;8.450;2023-05-09T08:54:20;15.52;;;13.35;;
29412;SDS011;16389;50.126;8.450;2023-05-09T08:56:49;15.05;;;13.07;;
29412;SDS011;16389;50.126;8.450;2023-05-09T08:59:15;20.60;;;15.50;;
29412;SDS011;16389;50.126;8.450;2023-05-09T09:01:42;18.23;;;14.80;;
29412;SDS011;16389;50.126;8.450;2023-05-09T09:04:08;15.93;;;14.02;;
29412;SDS011;16389;50.126;8.450;2023-05-09T09:06:36;16.42;;;14.10;;
29412;SDS011;16389;50.126;8.450;2023-05-09T09:09:02;16.83;;;14.15;;
29412;SDS011;16389;50.126;8.450;2023-05-09T09:11:30;17.70;;;14.13;;
29412;SDS011;16389;50.126;8.450;2023-05-09T09:14:01;15.85;;;13.90;;
29412;SDS011;16389;50.126;8.450;2023-05-09T09:16:44;16.25;;;14.50;;
29412;SDS011;16389;50.126;8.450;2023-05-09T09:19:13;14.98;;;13.48;;
29412;SDS011;16389;50.126;8.450;2023-05-09T09:21:41;17.33;;;12.40;;
29412;SDS011;16389;50.126;8.450;2023-05-09T09:24:11;14.65;;;12.65;;
29412;SDS011;16389;50.126;8.450;2023-05-09T09:26:44;15.65;;;12.32;;
29412;SDS011;16389;50.126;8.450;2023-05-09T09:29:12;15.82;;;13.77;;
29412;SDS011;16389;50.126;8.450;2023-05-09T09:31:38;14.68;;;12.77;;
29412;SDS011;16389;50.126;8.450;2023-05-09T09:34:07;20.58;;;15.23;;
29412;SDS011;16389;50.126;8.450;2023-05-09T09:36:33;15.38;;;13.85;;
29412;SDS011;16389;50.126;8.450;2023-05-09T09:39:01;17.90;;;13.80;;
29412;SDS011;16389;50.126;8.450;2023-05-09T09:41:33;14.88;;;13.27;;
29412;SDS011;16389;50.126;8.450;2023-05-09T09:44:06;15.70;;;14.10;;
29412;SDS011;16389;50.126;8.450;2023-05-09T09:49:19;17.42;;;14.85;;
29412;SDS011;16389;50.126;8.450;2023-05-09T09:51:49;19.85;;;14.15;;
29412;SDS011;16389;50.126;8.450;2023-05-09T09:54:24;16.42;;;14.63;;
29412;SDS011;16389;50.126;8.450;2023-05-09T09:56:51;18.48;;;15.98;;
29412;SDS011;16389;50.126;8.450;2023-05-09T09:59:22;18.15;;;15.85;;
29412;SDS011;16389;50.126;8.450;2023-05-09T10:04:32;16.08;;;14.50;;
29412;SDS011;16389;50.126;8.450;2023-05-09T10:06:59;17.42;;;14.95;;
29412;SDS011;16389;50.126;8.450;2023-05-09T10:09:30;20.85;;;15.77;;
29412;SDS011;16389;50.126;8.450;2023-05-09T10:12:00;16.70;;;14.15;;
29412;SDS011;16389;50.126;8.450;2023-05-09T10:14:28;20.25;;;14.73;;
29412;SDS011;16389;50.126;8.450;2023-05-09T10:16:56;14.02;;;12.63;;
29412;SDS011;16389;50.126;8.450;2023-05-09T10:19:23;14.93;;;13.43;;
29412;SDS011;16389;50.126;8.450;2023-05-09T10:21:52;22.20;;;14.82;;
29412;SDS011;16389;50.126;8.450;2023-05-09T10:27:11;15.30;;;13.75;;
29412;SDS011;16389;50.126;8.450;2023-05-09T10:29:45;15.55;;;12.75;;
29412;SDS011;16389;50.126;8.450;2023-05-09T10:35:28;13.75;;;12.07;;
29412;SDS011;16389;50.126;8.450;2023-05-09T10:37:57;15.07;;;13.32;;
29412;SDS011;16389;50.126;8.450;2023-05-09T10:40:25;14.00;;;12.68;;
29412;SDS011;16389;50.126;8.450;2023-05-09T10:42:52;14.00;;;12.70;;
29412;SDS011;16389;50.126;8.450;2023-05-09T10:45:18;14.10;;;12.70;;
29412;SDS011;16389;50.126;8.450;2023-05-09T10:47:48;14.20;;;12.98;;
29412;SDS011;16389;50.126;8.450;2023-05-09T10:55:37;13.30;;;11.88;;
29412;SDS011;16389;50.126;8.450;2023-05-09T10:58:25;16.73;;;13.98;;
29412;SDS011;16389;50.126;8.450;2023-05-09T11:00:58;14.75;;;12.85;;
29412;SDS011;16389;50.126;8.450;2023-05-09T11:03:26;14.43;;;12.93;;
29412;SDS011;16389;50.126;8.450;2023-05-09T11:05:54;14.70;;;13.40;;
29412;SDS011;16389;50.126;8.450;2023-05-09T11:10:50;14.98;;;13.43;;
29412;SDS011;16389;50.126;8.450;2023-05-09T11:13:21;13.30;;;11.90;;
29412;SDS011;16389;50.126;8.450;2023-05-09T11:18:26;14.93;;;13.32;;
29412;SDS011;16389;50.126;8.450;2023-05-09T11:20:53;13.38;;;12.07;;
29412;SDS011;16389;50.126;8.450;2023-05-09T11:23:20;13.55;;;12.27;;
29412;SDS011;16389;50.126;8.450;2023-05-09T11:25:50;12.43;;;11.35;;
29412;SDS011;16389;50.126;8.450;2023-05-09T11:28:26;13.27;;;12.07;;
29412;SDS011;16389;50.126;8.450;2023-05-09T11:31:07;13.82;;;12.43;;
29412;SDS011;16389;50.126;8.450;2023-05-09T11:33:40;13.88;;;12.57;;
29412;SDS011;16389;50.126;8.450;2023-05-09T11:36:20;19.73;;;13.88;;
29412;SDS011;16389;50.126;8.450;2023-05-09T11:39:04;15.07;;;13.55;;
29412;SDS011;16389;50.126;8.450;2023-05-09T11:41:44;18.50;;;13.65;;
29412;SDS011;16389;50.126;8.450;2023-05-09T11:44:20;16.40;;;14.90;;
29412;SDS011;16389;50.126;8.450;2023-05-09T11:46:47;17.85;;;14.18;;
29412;SDS011;16389;50.126;8.450;2023-05-09T11:49:13;14.75;;;13.25;;
29412;SDS011;16389;50.126;8.450;2023-05-09T11:51:39;22.92;;;14.35;;
29412;SDS011;16389;50.126;8.450;2023-05-09T11:54:06;16.65;;;14.63;;
29412;SDS011;16389;50.126;8.450;2023-05-09T11:56:33;17.42;;;14.88;;
29412;SDS011;16389;50.126;8.450;2023-05-09T11:58:59;18.40;;;15.48;;
29412;SDS011;16389;50.126;8.450;2023-05-09T12:01:27;22.08;;;16.20;;
29412;SDS011;16389;50.126;8.450;2023-05-09T12:03:53;22.17;;;16.98;;
29412;SDS011;16389;50.126;8.450;2023-05-09T12:06:19;17.85;;;15.93;;
29412;SDS011;16389;50.126;8.450;2023-05-09T12:08:45;20.05;;;16.83;;
29412;SDS011;16389;50.126;8.450;2023-05-09T12:11:11;17.75;;;15.85;;
29412;SDS011;16389;50.126;8.450;2023-05-09T12:13:47;17.42;;;15.63;;
29412;SDS011;16389;50.126;8.450;2023-05-09T12:16:14;15.82;;;14.23;;
29412;SDS011;16389;50.126;8.450;2023-05-09T12:18:50;15.50;;;13.82;;
29412;SDS011;16389;50.126;8.450;2023-05-09T12:21:17;15.30;;;13.95;;
29412;SDS011;16389;50.126;8.450;2023-05-09T12:23:44;14.02;;;12.63;;
29412;SDS011;16389;50.126;8.450;2023-05-09T12:26:10;15.75;;;13.88;;
29412;SDS011;16389;50.126;8.450;2023-05-09T12:28:36;14.20;;;12.93;;
29412;SDS011;16389;50.126;8.450;2023-05-09T12:31:03;15.02;;;12.90;;
29412;SDS011;16389;50.126;8.450;2023-05-09T12:33:29;13.55;;;12.25;;
29412;SDS011;16389;50.126;8.450;2023-05-09T12:38:29;14.63;;;13.18;;
29412;SDS011;16389;50.126;8.450;2023-05-09T12:41:05;14.38;;;13.07;;
29412;SDS011;16389;50.126;8.450;2023-05-09T12:43:33;13.15;;;12.00;;
29412;SDS011;16389;50.126;8.450;2023-05-09T12:46:00;13.18;;;11.90;;
29412;SDS011;16389;50.126;8.450;2023-05-09T12:48:27;11.60;;;10.68;;
29412;SDS011;16389;50.126;8.450;2023-05-09T12:50:53;12.70;;;11.48;;
29412;SDS011;16389;50.126;8.450;2023-05-09T12:53:26;12.52;;;11.30;;
29412;SDS011;16389;50.126;8.450;2023-05-09T12:56:03;12.18;;;11.07;;
29412;SDS011;16389;50.126;8.450;2023-05-09T12:58:35;13.18;;;12.07;;
29412;SDS011;16389;50.126;8.450;2023-05-09T13:01:04;13.02;;;11.73;;
29412;SDS011;16389;50.126;8.450;2023-05-09T13:03:30;13.02;;;11.85;;
29412;SDS011;16389;50.126;8.450;2023-05-09T13:06:02;12.80;;;11.50;;
29412;SDS011;16389;50.126;8.450;2023-05-09T13:08:29;14.00;;;12.65;;
29412;SDS011;16389;50.126;8.450;2023-05-09T13:10:58;12.23;;;11.13;;
29412;SDS011;16389;50.126;8.450;2023-05-09T13:13:24;11.90;;;10.80;;
29412;SDS011;16389;50.126;8.450;2023-05-09T13:15:51;12.70;;;11.60;;
29412;SDS011;16389;50.126;8.450;2023-05-09T13:18:17;12.98;;;10.88;;
29412;SDS011;16389;50.126;8.450;2023-05-09T13:20:43;11.50;;;10.35;;
29412;SDS011;16389;50.126;8.450;2023-05-09T13:23:09;10.90;;;9.90;;
29412;SDS011;16389;50.126;8.450;2023-05-09T13:25:34;10.93;;;9.93;;
29412;SDS011;16389;50.126;8.450;2023-05-09T13:28:00;12.63;;;11.40;;
29412;SDS011;16389;50.126;8.450;2023-05-09T13:30:26;12.70;;;11.38;;
29412;SDS011;16389;50.126;8.450;2023-05-09T13:32:51;11.02;;;10.10;;
29412;SDS011;16389;50.126;8.450;2023-05-09T13:35:17;10.93;;;10.02;;
29412;SDS011;16389;50.126;8.450;2023-05-09T13:37:42;11.50;;;10.30;;
29412;SDS011;16389;50.126;8.450;2023-05-09T13:40:08;12.15;;;10.95;;
29412;SDS011;16389;50.126;8.450;2023-05-09T13:42:35;10.95;;;10.05;;
29412;SDS011;16389;50.126;8.450;2023-05-09T13:45:01;10.32;;;9.32;;
29412;SDS011;16389;50.126;8.450;2023-05-09T13:47:26;14.43;;;11.13;;
29412;SDS011;16389;50.126;8.450;2023-05-09T13:49:52;10.38;;;9.40;;
29412;SDS011;16389;50.126;8.450;2023-05-09T13:52:18;11.30;;;9.13;;
29412;SDS011;16389;50.126;8.450;2023-05-09T13:54:44;9.85;;;8.95;;
29412;SDS011;16389;50.126;8.450;2023-05-09T13:57:10;9.18;;;8.25;;
29412;SDS011;16389;50.126;8.450;2023-05-09T13:59:36;9.57;;;8.73;;
29412;SDS011;16389;50.126;8.450;2023-05-09T14:02:02;9.32;;;8.43;;
29412;SDS011;16389;50.126;8.450;2023-05-09T14:04:28;11.50;;;9.05;;
29412;SDS011;16389;50.126;8.450;2023-05-09T14:06:58;9.95;;;9.00;;
29412;SDS011;16389;50.126;8.450;2023-05-09T14:09:24;9.15;;;8.32;;
29412;SDS011;16389;50.126;8.450;2023-05-09T14:11:51;8.55;;;7.82;;
29412;SDS011;16389;50.126;8.450;2023-05-09T14:14:18;8.82;;;7.93;;
29412;SDS011;16389;50.126;8.450;2023-05-09T14:16:44;8.75;;;8.07;;
29412;SDS011;16389;50.126;8.450;2023-05-09T14:19:11;8.05;;;7.35;;
29412;SDS011;16389;50.126;8.450;2023-05-09T14:21:37;9.13;;;8.27;;
29412;SDS011;16389;50.126;8.450;2023-05-09T14:24:03;8.40;;;7.30;;
29412;SDS011;16389;50.126;8.450;2023-05-09T14:26:29;7.63;;;6.90;;
29412;SDS011;16389;50.126;8.450;2023-05-09T14:28:55;9.07;;;8.27;;
29412;SDS011;16389;50.126;8.450;2023-05-09T14:31:21;8.68;;;7.88;;
29412;SDS011;16389;50.126;8.450;2023-05-09T14:33:46;9.00;;;8.20;;
29412;SDS011;16389;50.126;8.450;2023-05-09T14:36:12;10.43;;;7.60;;
29412;SDS011;16389;50.126;8.450;2023-05-09T14:38:38;8.82;;;8.02;;
29412;SDS011;16389;50.126;8.450;2023-05-09T14:41:04;8.35;;;7.60;;
29412;SDS011;16389;50.126;8.450;2023-05-09T14:43:31;8.00;;;7.30;;
29412;SDS011;16389;50.126;8.450;2023-05-09T14:45:57;9.90;;;9.02;;
29412;SDS011;16389;50.126;8.450;2023-05-09T14:48:23;9.70;;;8.80;;
29412;SDS011;16389;50.126;8.450;2023-05-09T14:50:48;9.25;;;8.35;;
29412;SDS011;16389;50.126;8.450;2023-05-09T14:53:17;9.15;;;7.65;;
29412;SDS011;16389;50.126;8.450;2023-05-09T14:55:42;8.35;;;7.55;;
29412;SDS011;16389;50.126;8.450;2023-05-09T14:58:08;9.15;;;7.80;;
29412;SDS011;16389;50.126;8.450;2023-05-09T15:00:34;10.32;;;7.82;;
29412;SDS011;16389;50.126;8.450;2023-05-09T15:02:59;9.40;;;8.50;;